createdAt,value
2022-12-18T00:01:25.880Z,13.45
2022-12-18T00:03:54.144Z,12.63
2022-12-18T00:06:21.931Z,13.95
2022-12-18T00:08:49.023Z,17.73
2022-12-18T00:11:18.676Z,14.05
2022-12-18T00:13:46.223Z,15.57
2022-12-18T00:16:15.613Z,14.95
2022-12-18T00:18:43.391Z,14.25
2022-12-18T00:21:12.884Z,15.02
2022-12-18T00:23:42.090Z,15.43
2022-12-18T00:26:16.128Z,14.48
2022-12-18T00:28:44.095Z,16.38
2022-12-18T00:31:13.975Z,15.63
2022-12-18T00:33:41.130Z,17.08
2022-12-18T00:36:42.535Z,13.40
2022-12-18T00:39:11.264Z,16.25
2022-12-18T00:41:56.538Z,14.65
2022-12-18T00:44:23.243Z,17.52
2022-12-18T00:46:51.341Z,18.58
2022-12-18T00:49:19.761Z,16.50
2022-12-18T00:51:47.042Z,16.58
2022-12-18T00:54:14.196Z,14.75
2022-12-18T00:56:48.217Z,15.80
2022-12-18T00:59:15.299Z,16.45
2022-12-18T01:01:42.315Z,17.02
2022-12-18T01:04:09.239Z,15.43
2022-12-18T01:06:35.922Z,17.30
2022-12-18T01:09:03.071Z,17.02
2022-12-18T01:11:29.807Z,16.17
2022-12-18T01:13:56.576Z,15.40
2022-12-18T01:16:23.693Z,18.20
2022-12-18T01:18:54.711Z,16.38
2022-12-18T01:21:22.764Z,17.25
2022-12-18T01:23:53.762Z,17.10
2022-12-18T01:26:20.708Z,15.73
2022-12-18T01:28:47.429Z,19.48
2022-12-18T01:31:16.941Z,19.00
2022-12-18T01:33:44.085Z,14.13
2022-12-18T01:36:17.436Z,19.77
2022-12-18T01:41:11.352Z,17.38
2022-12-18T01:43:51.295Z,20.17
2022-12-18T01:46:21.754Z,18.92
2022-12-18T01:48:51.635Z,16.40
2022-12-18T01:51:18.577Z,18.65
2022-12-18T01:53:47.017Z,18.00
2022-12-18T01:56:16.976Z,20.92
2022-12-18T01:58:59.336Z,18.80
2022-12-18T02:01:26.781Z,17.38
2022-12-18T02:03:54.003Z,18.10
2022-12-18T02:06:34.615Z,19.15
2022-12-18T02:09:14.773Z,17.25
2022-12-18T02:12:06.131Z,20.13
2022-12-18T02:14:38.662Z,18.60
2022-12-18T02:17:43.963Z,17.52
2022-12-18T02:20:28.359Z,15.90
2022-12-18T02:23:37.704Z,20.23
2022-12-18T02:26:20.115Z,19.23
2022-12-18T02:29:18.410Z,17.85
2022-12-18T02:31:54.152Z,18.58
2022-12-18T02:34:25.707Z,21.52
2022-12-18T02:36:55.236Z,18.45
2022-12-18T02:39:24.565Z,17.33
2022-12-18T02:41:59.800Z,19.65
2022-12-18T02:44:26.790Z,18.98
2022-12-18T02:46:55.315Z,18.00
2022-12-18T02:49:41.085Z,18.60
2022-12-18T02:52:34.332Z,20.13
2022-12-18T02:55:21.880Z,20.85
2022-12-18T02:58:11.934Z,18.88
2022-12-18T03:00:44.109Z,21.65
2022-12-18T03:03:20.507Z,19.15
2022-12-18T03:05:57.523Z,20.08
2022-12-18T03:08:30.328Z,17.10
2022-12-18T03:11:07.033Z,22.60
2022-12-18T03:13:48.788Z,21.23
2022-12-18T03:16:29.281Z,21.80
2022-12-18T03:19:07.619Z,20.02
2022-12-18T03:21:55.168Z,20.20
2022-12-18T03:24:27.278Z,20.83
2022-12-18T03:26:58.624Z,20.95
2022-12-18T03:29:33.947Z,23.13
2022-12-18T03:32:20.732Z,20.25
2022-12-18T03:34:51.831Z,20.23
2022-12-18T03:37:21.545Z,20.20
2022-12-18T03:39:48.334Z,23.10
2022-12-18T03:42:31.051Z,19.60
2022-12-18T03:45:27.075Z,22.00
2022-12-18T03:48:09.648Z,21.88
2022-12-18T03:50:48.726Z,21.67
2022-12-18T03:53:46.661Z,21.35
2022-12-18T03:56:17.176Z,20.88
2022-12-18T03:58:46.652Z,19.75
2022-12-18T04:01:20.937Z,20.02
2022-12-18T04:03:50.586Z,18.83
2022-12-18T04:06:19.964Z,17.70
2022-12-18T04:08:47.896Z,19.52
2022-12-18T04:11:18.170Z,17.98
2022-12-18T04:13:46.584Z,18.13
2022-12-18T04:16:19.879Z,22.35
2022-12-18T04:18:49.827Z,17.17
2022-12-18T04:21:16.828Z,19.08
2022-12-18T04:23:43.811Z,16.48
2022-12-18T04:26:11.293Z,18.13
2022-12-18T04:29:04.302Z,19.02
2022-12-18T04:31:31.095Z,17.02
2022-12-18T04:33:58.396Z,18.27
2022-12-18T04:36:27.045Z,17.90
2022-12-18T04:38:54.320Z,15.50
2022-12-18T04:41:21.538Z,16.77
2022-12-18T04:43:49.505Z,18.65
2022-12-18T04:46:16.233Z,16.48
2022-12-18T04:48:42.925Z,17.00
2022-12-18T04:51:09.637Z,18.25
2022-12-18T04:53:36.625Z,15.60
2022-12-18T04:56:15.663Z,16.88
2022-12-18T04:58:44.434Z,15.20
2022-12-18T05:01:12.911Z,17.25
2022-12-18T05:03:40.375Z,18.65
2022-12-18T05:06:08.197Z,17.88
2022-12-18T05:08:35.181Z,16.13
2022-12-18T05:11:07.777Z,16.15
2022-12-18T05:13:35.864Z,18.23
2022-12-18T05:16:03.437Z,16.88
2022-12-18T05:18:30.641Z,14.45
2022-12-18T05:20:57.433Z,18.65
2022-12-18T05:23:25.990Z,18.42
2022-12-18T05:26:01.348Z,17.35
2022-12-18T05:28:30.263Z,17.75
2022-12-18T05:30:59.257Z,17.00
2022-12-18T05:33:27.934Z,14.93
2022-12-18T05:35:56.520Z,14.93
2022-12-18T05:38:24.708Z,17.13
2022-12-18T05:40:52.571Z,17.55
2022-12-18T05:43:21.642Z,17.30
2022-12-18T05:45:49.522Z,15.95
2022-12-18T05:48:17.168Z,15.13
2022-12-18T05:50:49.240Z,16.52
2022-12-18T05:53:18.759Z,14.50
2022-12-18T05:55:46.431Z,15.35
2022-12-18T05:58:14.049Z,16.63
2022-12-18T06:00:45.354Z,12.98
2022-12-18T06:03:13.564Z,13.52
2022-12-18T06:05:43.601Z,11.93
2022-12-18T06:08:11.433Z,14.95
2022-12-18T06:10:38.459Z,10.63
2022-12-18T06:13:06.060Z,12.30
2022-12-18T06:15:33.203Z,10.90
2022-12-18T06:18:01.747Z,11.30
2022-12-18T06:20:33.621Z,12.55
2022-12-18T06:23:01.229Z,13.75
2022-12-18T06:25:27.964Z,13.25
2022-12-18T06:27:54.775Z,13.52
2022-12-18T06:30:21.590Z,12.32
2022-12-18T06:32:54.664Z,10.85
2022-12-18T06:35:23.509Z,11.65
2022-12-18T06:37:50.295Z,10.52
2022-12-18T06:40:17.616Z,11.35
2022-12-18T06:42:44.337Z,13.10
2022-12-18T06:45:12.283Z,11.65
2022-12-18T06:47:39.033Z,11.00
2022-12-18T06:50:06.617Z,11.68
2022-12-18T06:52:34.415Z,12.65
2022-12-18T06:55:01.493Z,10.82
2022-12-18T06:57:28.259Z,9.63
2022-12-18T06:59:55.121Z,11.40
2022-12-18T07:02:21.862Z,10.27
2022-12-18T07:04:51.784Z,12.55
2022-12-18T07:07:18.777Z,14.20
2022-12-18T07:09:45.460Z,13.02
2022-12-18T07:12:12.185Z,10.73
2022-12-18T07:14:38.845Z,11.77
2022-12-18T07:17:06.513Z,12.82
2022-12-18T07:19:33.688Z,11.50
2022-12-18T07:22:00.526Z,10.82
2022-12-18T07:24:27.397Z,13.07
2022-12-18T07:26:54.128Z,11.52
2022-12-18T07:29:20.889Z,12.07
2022-12-18T07:31:47.702Z,11.65
2022-12-18T07:34:16.019Z,10.43
2022-12-18T07:36:43.134Z,10.60
2022-12-18T07:39:11.536Z,9.95
2022-12-18T07:41:41.308Z,10.73
2022-12-18T07:44:12.266Z,10.30
2022-12-18T07:46:39.149Z,11.57
2022-12-18T07:49:05.824Z,10.60
2022-12-18T07:51:32.545Z,9.25
2022-12-18T07:53:59.215Z,11.77
2022-12-18T07:56:28.205Z,9.90
2022-12-18T07:58:56.023Z,10.55
2022-12-18T08:01:22.842Z,8.73
2022-12-18T08:03:51.216Z,8.50
2022-12-18T08:06:19.660Z,10.07
2022-12-18T08:08:53.371Z,9.82
2022-12-18T08:11:20.368Z,9.90
2022-12-18T08:13:48.370Z,11.80
2022-12-18T08:16:16.115Z,11.20
2022-12-18T08:18:42.886Z,9.13
2022-12-18T08:21:12.077Z,10.63
2022-12-18T08:23:43.709Z,11.10
2022-12-18T08:26:12.072Z,10.15
2022-12-18T08:28:38.914Z,10.77
2022-12-18T08:31:06.177Z,10.80
2022-12-18T08:33:33.447Z,12.75
2022-12-18T08:36:01.217Z,7.97
2022-12-18T08:38:27.956Z,11.52
2022-12-18T08:41:06.509Z,10.82
2022-12-18T08:43:52.276Z,9.35
2022-12-18T08:46:20.745Z,11.75
2022-12-18T08:48:48.300Z,9.68
2022-12-18T08:51:17.305Z,14.32
2022-12-18T08:53:45.411Z,11.00
2022-12-18T08:56:13.437Z,10.95
2022-12-18T08:58:40.657Z,18.05
2022-12-18T09:01:10.200Z,9.40
2022-12-18T09:03:37.494Z,10.70
2022-12-18T09:06:04.784Z,9.52
2022-12-18T09:08:31.739Z,9.93
2022-12-18T09:10:58.571Z,8.82
2022-12-18T09:13:25.372Z,8.80
2022-12-18T09:15:54.047Z,9.90
2022-12-18T09:18:22.765Z,8.45
2022-12-18T09:20:51.070Z,8.20
2022-12-18T09:23:17.806Z,8.63
2022-12-18T09:25:44.464Z,10.20
2022-12-18T09:28:17.803Z,7.93
2022-12-18T09:33:17.542Z,8.80
2022-12-18T09:35:45.812Z,9.73
2022-12-18T09:38:17.856Z,7.20
2022-12-18T09:40:53.892Z,6.78
2022-12-18T09:43:36.813Z,7.70
2022-12-18T09:46:08.634Z,7.25
2022-12-18T09:48:43.578Z,13.05
2022-12-18T09:51:33.456Z,7.88
2022-12-18T09:54:11.534Z,8.93
2022-12-18T09:56:42.916Z,7.25
2022-12-18T09:59:22.020Z,8.38
2022-12-18T10:01:48.911Z,8.18
2022-12-18T10:04:15.911Z,7.80
2022-12-18T10:07:09.444Z,6.68
2022-12-18T10:09:43.685Z,10.10
2022-12-18T10:12:27.425Z,8.20
2022-12-18T10:15:27.036Z,8.23
2022-12-18T10:18:07.255Z,8.48
2022-12-18T10:20:45.992Z,6.30
2022-12-18T10:23:48.392Z,6.63
2022-12-18T10:26:15.587Z,7.60
2022-12-18T10:28:44.655Z,8.35
2022-12-18T10:31:24.691Z,7.43
2022-12-18T10:33:54.176Z,6.10
2022-12-18T10:36:21.927Z,9.55
2022-12-18T10:38:50.580Z,6.38
2022-12-18T10:41:22.867Z,7.07
2022-12-18T10:44:09.543Z,6.05
2022-12-18T10:46:36.426Z,6.93
2022-12-18T10:49:03.354Z,5.55
2022-12-18T10:51:38.325Z,7.32
2022-12-18T10:54:18.030Z,9.50
2022-12-18T10:56:45.254Z,11.57
2022-12-18T10:59:15.822Z,6.50
2022-12-18T11:01:59.434Z,10.20
2022-12-18T11:04:28.805Z,8.25
2022-12-18T11:06:56.467Z,6.53
2022-12-18T11:09:25.764Z,10.35
2022-12-18T11:11:58.055Z,8.32
2022-12-18T11:14:30.706Z,5.25
2022-12-18T11:19:54.999Z,6.28
2022-12-18T11:22:41.092Z,5.97
2022-12-18T11:25:36.135Z,6.65
2022-12-18T11:28:05.532Z,4.43
2022-12-18T11:30:35.211Z,5.72
2022-12-18T11:33:11.229Z,5.13
2022-12-18T11:36:04.586Z,5.57
2022-12-18T11:38:35.606Z,6.53
2022-12-18T11:41:23.520Z,5.55
2022-12-18T11:43:59.577Z,3.72
2022-12-18T11:46:40.847Z,6.30
2022-12-18T11:49:16.424Z,4.75
2022-12-18T11:52:04.380Z,4.45
2022-12-18T11:54:31.153Z,5.47
2022-12-18T11:57:41.168Z,6.80
2022-12-18T12:00:21.127Z,5.18
2022-12-18T12:03:07.890Z,4.43
2022-12-18T12:05:51.832Z,6.60
2022-12-18T12:08:18.496Z,8.40
2022-12-18T12:11:11.257Z,11.20
2022-12-18T12:14:08.042Z,6.55
2022-12-18T12:17:22.859Z,8.05
2022-12-18T12:20:17.339Z,5.82
2022-12-18T12:23:09.550Z,6.07
2022-12-18T12:25:45.594Z,4.80
2022-12-18T12:28:44.520Z,5.40
2022-12-18T12:31:12.527Z,6.85
2022-12-18T12:33:57.382Z,5.47
2022-12-18T12:36:32.321Z,5.65
2022-12-18T12:39:04.127Z,5.63
2022-12-18T12:41:52.901Z,6.82
2022-12-18T12:44:27.083Z,6.07
2022-12-18T12:46:59.408Z,6.70
2022-12-18T12:49:29.874Z,6.88
2022-12-18T12:52:32.001Z,5.47
2022-12-18T12:54:59.724Z,5.72
2022-12-18T12:57:37.561Z,7.28
2022-12-18T13:00:12.538Z,8.43
2022-12-18T13:03:13.082Z,8.00
2022-12-18T13:06:04.113Z,8.70
2022-12-18T13:08:51.563Z,23.85
2022-12-18T13:11:59.751Z,13.15
2022-12-18T13:14:36.486Z,24.70
2022-12-18T13:17:21.834Z,32.28
2022-12-18T13:20:10.929Z,17.85
2022-12-18T13:22:41.525Z,17.10
2022-12-18T13:25:30.463Z,21.13
2022-12-18T13:28:15.377Z,13.57
2022-12-18T13:30:51.747Z,18.13
2022-12-18T13:33:23.278Z,27.08
2022-12-18T13:35:54.640Z,11.70
2022-12-18T13:38:21.628Z,13.00
2022-12-18T13:40:48.380Z,6.60
2022-12-18T13:43:21.292Z,19.02
2022-12-18T13:46:05.346Z,17.27
2022-12-18T13:48:38.978Z,24.23
2022-12-18T13:51:12.027Z,13.20
2022-12-18T13:54:06.973Z,11.53
2022-12-18T13:56:35.101Z,6.32
2022-12-18T13:59:19.254Z,7.72
2022-12-18T14:01:58.385Z,14.10
2022-12-18T14:04:33.824Z,11.93
2022-12-18T14:07:16.006Z,5.60
2022-12-18T14:09:47.555Z,9.57
2022-12-18T14:12:45.920Z,8.13
2022-12-18T14:15:34.717Z,7.80
2022-12-18T14:18:15.373Z,7.88
2022-12-18T14:20:52.872Z,9.38
2022-12-18T14:23:42.090Z,7.00
2022-12-18T14:26:24.196Z,5.57
2022-12-18T14:28:51.184Z,7.20
2022-12-18T14:31:27.314Z,9.93
2022-12-18T14:33:54.862Z,4.60
2022-12-18T14:36:27.183Z,9.93
2022-12-18T14:38:59.038Z,5.27
2022-12-18T14:41:27.458Z,5.97
2022-12-18T14:43:55.474Z,11.85
2022-12-18T14:46:42.399Z,4.95
2022-12-18T14:49:30.179Z,4.82
2022-12-18T14:52:23.398Z,5.18
2022-12-18T14:54:50.262Z,6.90
2022-12-18T14:57:24.516Z,7.25
2022-12-18T14:59:51.855Z,9.13
2022-12-18T15:02:27.584Z,5.40
2022-12-18T15:05:14.283Z,6.50
2022-12-18T15:07:42.870Z,5.05
2022-12-18T15:10:12.855Z,5.18
2022-12-18T15:13:21.464Z,8.32
2022-12-18T15:15:49.208Z,6.80
2022-12-18T15:18:19.075Z,5.32
2022-12-18T15:20:54.106Z,4.07
2022-12-18T15:23:24.228Z,5.32
2022-12-18T15:26:04.084Z,6.80
2022-12-18T15:28:48.920Z,4.97
2022-12-18T15:31:16.204Z,7.05
2022-12-18T15:33:53.976Z,5.43
2022-12-18T15:36:26.877Z,4.07
2022-12-18T15:38:56.045Z,4.75
2022-12-18T15:41:36.213Z,7.45
2022-12-18T15:44:04.223Z,5.80
2022-12-18T15:46:31.911Z,4.10
2022-12-18T15:49:02.275Z,4.60
2022-12-18T15:51:35.414Z,3.67
2022-12-18T15:54:04.977Z,11.52
2022-12-18T15:56:50.373Z,4.43
2022-12-18T15:59:21.223Z,7.28
2022-12-18T16:01:51.605Z,14.15
2022-12-18T16:04:22.889Z,7.07
2022-12-18T16:09:37.720Z,4.13
2022-12-18T16:12:04.827Z,5.45
2022-12-18T16:14:33.200Z,5.65
2022-12-18T16:17:02.234Z,6.05
2022-12-18T16:19:30.070Z,4.75
2022-12-18T16:21:59.336Z,4.13
2022-12-18T16:24:31.519Z,6.28
2022-12-18T16:27:00.252Z,6.88
2022-12-18T16:29:29.326Z,10.20
2022-12-18T16:32:00.688Z,7.30
2022-12-18T16:34:35.400Z,7.28
2022-12-18T16:37:08.405Z,11.05
2022-12-18T16:39:36.153Z,4.43
2022-12-18T16:42:05.938Z,6.82
2022-12-18T16:44:34.435Z,4.93
2022-12-18T16:47:02.961Z,5.70
2022-12-18T16:49:30.602Z,3.30
2022-12-18T16:51:57.372Z,5.95
2022-12-18T16:54:24.207Z,8.13
2022-12-18T16:56:52.285Z,5.03
2022-12-18T16:59:19.310Z,6.75
2022-12-18T17:01:47.095Z,9.60
2022-12-18T17:04:14.564Z,11.20
2022-12-18T17:06:44.030Z,5.53
2022-12-18T17:09:16.061Z,6.03
2022-12-18T17:11:43.341Z,4.30
2022-12-18T17:14:15.561Z,5.82
2022-12-18T17:16:42.701Z,4.78
2022-12-18T17:19:16.614Z,4.10
2022-12-18T17:21:45.406Z,5.20
2022-12-18T17:24:12.155Z,5.32
2022-12-18T17:26:38.980Z,4.45
2022-12-18T17:29:06.174Z,3.28
2022-12-18T17:31:33.232Z,3.75
2022-12-18T17:34:03.822Z,4.68
2022-12-18T17:36:32.300Z,5.57
2022-12-18T17:39:01.755Z,3.60
2022-12-18T17:41:29.992Z,4.53
2022-12-18T17:43:59.402Z,5.38
2022-12-18T17:46:27.534Z,10.60
2022-12-18T17:48:58.580Z,3.75
2022-12-18T17:51:25.821Z,3.45
2022-12-18T17:53:52.922Z,3.90
2022-12-18T17:56:22.031Z,5.43
2022-12-18T17:58:50.281Z,3.70
2022-12-18T18:01:20.333Z,3.75
2022-12-18T18:03:48.324Z,4.65
2022-12-18T18:06:18.680Z,3.63
2022-12-18T18:08:45.448Z,4.88
2022-12-18T18:11:33.851Z,3.20
2022-12-18T18:14:05.145Z,5.55
2022-12-18T18:16:35.445Z,5.35
2022-12-18T18:19:05.392Z,3.70
2022-12-18T18:21:32.743Z,3.33
2022-12-18T18:24:03.625Z,5.20
2022-12-18T18:26:34.895Z,3.88
2022-12-18T18:29:03.339Z,3.78
2022-12-18T18:31:34.786Z,4.20
2022-12-18T18:34:07.432Z,4.00
2022-12-18T18:36:34.886Z,3.40
2022-12-18T18:39:02.175Z,4.15
2022-12-18T18:41:30.408Z,3.85
2022-12-18T18:43:58.406Z,4.90
2022-12-18T18:46:25.850Z,5.15
2022-12-18T18:48:53.012Z,5.43
2022-12-18T18:51:21.328Z,4.45
2022-12-18T18:53:50.227Z,4.40
2022-12-18T18:56:56.313Z,4.13
2022-12-18T18:59:06.887Z,4.07
2022-12-18T19:01:37.883Z,5.82
2022-12-18T19:04:05.310Z,4.75
2022-12-18T19:06:32.453Z,4.78
2022-12-18T19:09:02.273Z,4.47
2022-12-18T19:11:49.032Z,5.55
2022-12-18T19:14:16.426Z,6.70
2022-12-18T19:16:45.386Z,5.65
2022-12-18T19:19:13.283Z,5.68
2022-12-18T19:21:40.230Z,5.32
2022-12-18T19:24:07.372Z,4.80
2022-12-18T19:26:34.318Z,4.53
2022-12-18T19:29:06.814Z,4.72
2022-12-18T19:31:36.374Z,5.03
2022-12-18T19:34:14.744Z,5.13
2022-12-18T19:37:01.867Z,4.20
2022-12-18T19:39:28.638Z,4.28
2022-12-18T19:41:56.834Z,8.15
2022-12-18T19:44:23.628Z,3.92
2022-12-18T19:46:51.578Z,3.95
2022-12-18T19:49:21.040Z,7.88
2022-12-18T19:51:47.791Z,5.97
2022-12-18T19:54:17.829Z,6.70
2022-12-18T19:56:45.808Z,6.15
2022-12-18T19:59:13.135Z,5.13
2022-12-18T20:01:40.270Z,4.88
2022-12-18T20:04:07.202Z,4.53
2022-12-18T20:06:48.261Z,4.75
2022-12-18T20:09:15.696Z,5.22
2022-12-18T20:11:43.355Z,4.50
2022-12-18T20:14:11.231Z,4.75
2022-12-18T20:16:38.170Z,4.53
2022-12-18T20:19:05.778Z,5.95
2022-12-18T20:21:33.375Z,5.15
2022-12-18T20:24:01.216Z,5.05
2022-12-18T20:26:28.561Z,4.35
2022-12-18T20:28:55.512Z,6.63
2022-12-18T20:31:22.971Z,5.15
2022-12-18T20:33:51.023Z,4.10
2022-12-18T20:36:24.594Z,8.60
2022-12-18T20:38:58.056Z,5.68
2022-12-18T20:41:37.473Z,4.45
2022-12-18T20:44:23.056Z,6.32
2022-12-18T20:46:56.391Z,6.78
2022-12-18T20:49:25.047Z,6.57
2022-12-18T20:51:53.402Z,5.70
2022-12-18T20:54:21.373Z,6.43
2022-12-18T20:56:48.220Z,5.50
2022-12-18T20:59:15.204Z,4.15
2022-12-18T21:01:47.432Z,6.03
2022-12-18T21:04:18.035Z,5.30
2022-12-18T21:06:51.280Z,6.07
2022-12-18T21:09:20.427Z,5.22
2022-12-18T21:12:05.952Z,6.95
2022-12-18T21:14:32.750Z,5.18
2022-12-18T21:17:03.054Z,5.78
2022-12-18T21:19:30.175Z,5.28
2022-12-18T21:21:58.014Z,5.78
2022-12-18T21:24:25.095Z,5.22
2022-12-18T21:26:51.844Z,4.75
2022-12-18T21:29:23.837Z,5.07
2022-12-18T21:31:53.326Z,6.07
2022-12-18T21:34:19.995Z,7.00
2022-12-18T21:36:47.655Z,5.93
2022-12-18T21:39:15.856Z,6.80
2022-12-18T21:42:01.634Z,6.70
2022-12-18T21:44:28.731Z,6.78
2022-12-18T21:47:02.464Z,8.48
2022-12-18T21:49:36.217Z,8.70
2022-12-18T21:52:02.952Z,5.45
2022-12-18T21:54:30.144Z,5.70
2022-12-18T21:56:58.398Z,6.63
2022-12-18T21:59:35.203Z,6.68
2022-12-18T22:02:08.390Z,6.88
2022-12-18T22:04:35.308Z,6.00
2022-12-18T22:07:03.209Z,6.15
2022-12-18T22:09:29.893Z,9.13
2022-12-18T22:11:56.692Z,5.45
2022-12-18T22:14:23.785Z,6.78
2022-12-18T22:16:52.323Z,7.82
2022-12-18T22:19:20.244Z,6.13
2022-12-18T22:21:48.803Z,8.00
2022-12-18T22:24:23.740Z,8.55
2022-12-18T22:26:52.905Z,7.10
2022-12-18T22:29:55.843Z,8.93
2022-12-18T22:32:30.751Z,9.63
2022-12-18T22:35:05.771Z,8.93
2022-12-18T22:37:34.108Z,5.90
2022-12-18T22:40:03.237Z,6.88
2022-12-18T22:42:30.886Z,9.27
2022-12-18T22:44:57.771Z,8.52
2022-12-18T22:47:29.356Z,9.18
2022-12-18T22:49:56.976Z,8.73
2022-12-18T22:52:23.847Z,8.85
2022-12-18T22:54:53.242Z,7.80
2022-12-18T22:57:21.670Z,6.18
2022-12-18T22:59:49.165Z,7.10
2022-12-18T23:02:17.670Z,6.50
2022-12-18T23:04:45.066Z,9.68
2022-12-18T23:07:12.605Z,6.97
2022-12-18T23:09:39.805Z,7.30
2022-12-18T23:12:07.286Z,7.15
2022-12-18T23:14:33.926Z,7.72
2022-12-18T23:17:00.569Z,7.75
2022-12-18T23:19:27.320Z,6.38
2022-12-18T23:21:54.784Z,6.57
2022-12-18T23:24:23.755Z,7.95
2022-12-18T23:26:50.570Z,7.72
2022-12-18T23:29:17.209Z,5.90
2022-12-18T23:31:44.196Z,5.78
2022-12-18T23:34:13.717Z,6.90
2022-12-18T23:36:45.529Z,8.05
2022-12-18T23:39:29.065Z,6.20
2022-12-18T23:42:00.348Z,6.75
2022-12-18T23:44:27.818Z,7.85
2022-12-18T23:46:55.134Z,7.47
2022-12-18T23:49:22.326Z,7.68
2022-12-18T23:51:49.489Z,7.65
2022-12-18T23:54:16.282Z,5.70
2022-12-18T23:56:43.000Z,7.22
2022-12-18T23:59:09.984Z,7.35
